createdAt,value
2019-04-16T00:01:46.816Z,57.94
2019-04-16T00:04:13.590Z,57.90
2019-04-16T00:06:40.351Z,57.97
2019-04-16T00:09:07.129Z,57.87
2019-04-16T00:11:33.878Z,58.21
2019-04-16T00:14:03.015Z,58.23
2019-04-16T00:16:29.205Z,58.20
2019-04-16T00:18:57.965Z,58.20
2019-04-16T00:21:24.521Z,58.18
2019-04-16T00:23:51.279Z,58.34
2019-04-16T00:26:17.997Z,58.50
2019-04-16T00:28:44.805Z,58.63
2019-04-16T00:31:11.547Z,58.41
2019-04-16T00:33:39.371Z,58.35
2019-04-16T00:36:06.850Z,57.94
2019-04-16T00:38:40.421Z,58.14
2019-04-16T00:41:02.364Z,58.17
2019-04-16T00:43:29.104Z,58.03
2019-04-16T00:45:55.846Z,57.78
2019-04-16T00:48:22.628Z,57.67
2019-04-16T00:50:49.342Z,57.85
2019-04-16T00:53:16.131Z,57.88
2019-04-16T00:55:45.064Z,57.98
2019-04-16T00:58:11.447Z,58.07
2019-04-16T01:00:38.347Z,58.56
2019-04-16T01:03:05.156Z,58.52
2019-04-16T01:05:35.099Z,58.29
2019-04-16T01:08:00.481Z,58.30
2019-04-16T01:10:27.149Z,58.19
2019-04-16T01:12:53.997Z,58.15
2019-04-16T01:15:20.689Z,58.05
2019-04-16T01:17:47.482Z,58.15
2019-04-16T01:20:14.256Z,58.38
2019-04-16T01:22:41.046Z,58.43
2019-04-16T01:25:08.004Z,58.58
2019-04-16T01:27:34.824Z,58.55
2019-04-16T01:30:05.110Z,58.82
2019-04-16T01:32:30.234Z,58.96
2019-04-16T01:34:56.963Z,58.96
2019-04-16T01:37:25.852Z,58.79
2019-04-16T01:39:52.302Z,58.92
2019-04-16T01:42:23.149Z,58.96
2019-04-16T01:44:47.600Z,59.01
2019-04-16T01:47:14.384Z,58.98
2019-04-16T01:49:42.199Z,59.02
2019-04-16T01:52:09.839Z,58.87
2019-04-16T01:54:36.741Z,58.78
2019-04-16T01:57:03.521Z,58.77
2019-04-16T01:59:30.246Z,58.86
2019-04-16T02:01:57.016Z,58.85
2019-04-16T02:04:23.748Z,58.79
2019-04-16T02:06:50.542Z,58.92
2019-04-16T02:09:22.610Z,59.03
2019-04-16T02:11:45.844Z,59.20
2019-04-16T02:14:14.517Z,59.20
2019-04-16T02:16:41.172Z,59.15
2019-04-16T02:19:07.911Z,59.17
2019-04-16T02:21:34.773Z,59.44
2019-04-16T02:24:01.595Z,59.53
2019-04-16T02:26:28.327Z,59.69
2019-04-16T02:28:56.532Z,59.60
2019-04-16T02:31:23.659Z,59.39
2019-04-16T02:33:50.475Z,59.36
2019-04-16T02:36:17.174Z,59.40
2019-04-16T02:38:52.628Z,59.31
2019-04-16T02:41:12.482Z,59.40
2019-04-16T02:43:40.946Z,59.69
2019-04-16T02:46:07.785Z,59.74
2019-04-16T02:48:34.557Z,59.94
2019-04-16T02:51:07.292Z,60.00
2019-04-16T02:53:29.873Z,59.90
2019-04-16T02:55:56.615Z,60.00
2019-04-16T02:58:23.379Z,59.78
2019-04-16T03:00:50.778Z,60.18
2019-04-16T03:03:17.707Z,60.14
2019-04-16T03:05:44.482Z,60.30
2019-04-16T03:08:11.203Z,60.31
2019-04-16T03:10:37.951Z,60.21
2019-04-16T03:13:04.730Z,60.26
2019-04-16T03:15:33.698Z,60.35
2019-04-16T03:18:00.351Z,60.49
2019-04-16T03:20:27.090Z,60.72
2019-04-16T03:22:53.925Z,60.66
2019-04-16T03:25:20.669Z,60.77
2019-04-16T03:27:47.458Z,60.81
2019-04-16T03:30:14.303Z,60.82
2019-04-16T03:32:41.087Z,60.66
2019-04-16T03:35:07.942Z,60.61
2019-04-16T03:37:34.709Z,60.43
2019-04-16T03:40:15.118Z,60.22
2019-04-16T03:42:30.438Z,60.25
2019-04-16T03:44:57.191Z,60.35
2019-04-16T03:47:24.012Z,60.35
2019-04-16T03:49:50.743Z,60.25
2019-04-16T03:52:17.503Z,60.15
2019-04-16T03:54:44.257Z,60.08
2019-04-16T03:57:11.060Z,60.00
2019-04-16T03:59:40.018Z,60.07
2019-04-16T04:02:06.380Z,60.15
2019-04-16T04:04:33.125Z,60.14
2019-04-16T04:06:59.923Z,60.14
2019-04-16T04:09:26.669Z,60.19
2019-04-16T04:11:53.515Z,60.18
2019-04-16T04:14:23.220Z,60.12
2019-04-16T04:16:48.798Z,60.20
2019-04-16T04:19:16.100Z,60.18
2019-04-16T04:21:43.043Z,60.20
2019-04-16T04:24:09.820Z,60.28
2019-04-16T04:26:41.244Z,60.28
2019-04-16T04:29:06.236Z,60.51
2019-04-16T04:31:33.267Z,60.73
2019-04-16T04:34:00.059Z,60.96
2019-04-16T04:36:28.241Z,61.10
2019-04-16T04:38:55.305Z,61.28
2019-04-16T04:41:23.036Z,61.07
2019-04-16T04:43:50.660Z,61.02
2019-04-16T04:46:17.405Z,61.03
2019-04-16T04:48:44.191Z,61.05
2019-04-16T04:51:10.931Z,60.96
2019-04-16T04:53:37.778Z,61.08
2019-04-16T04:56:04.526Z,61.42
2019-04-16T04:58:34.025Z,61.44
2019-04-16T05:00:59.868Z,61.47
2019-04-16T05:03:26.757Z,61.49
2019-04-16T05:05:56.051Z,61.43
2019-04-16T05:08:22.097Z,61.41
2019-04-16T05:10:58.921Z,61.60
2019-04-16T05:13:17.588Z,61.70
2019-04-16T05:15:44.434Z,61.79
2019-04-16T05:18:11.234Z,61.55
2019-04-16T05:20:37.974Z,61.72
2019-04-16T05:23:04.767Z,61.93
2019-04-16T05:25:34.170Z,62.16
2019-04-16T05:28:00.085Z,62.42
2019-04-16T05:30:26.841Z,62.42
2019-04-16T05:32:53.569Z,62.55
2019-04-16T05:35:20.346Z,62.57
2019-04-16T05:37:48.580Z,62.62
2019-04-16T05:40:15.734Z,62.40
2019-04-16T05:42:42.474Z,62.49
2019-04-16T05:45:09.460Z,62.50
2019-04-16T05:47:36.189Z,62.48
2019-04-16T05:50:03.989Z,62.54
2019-04-16T05:52:32.324Z,62.37
2019-04-16T05:55:01.355Z,62.20
2019-04-16T05:57:27.936Z,62.18
2019-04-16T05:59:54.671Z,62.15
2019-04-16T06:02:21.632Z,62.18
2019-04-16T06:04:48.409Z,62.00
2019-04-16T06:07:15.140Z,62.02
2019-04-16T06:09:44.479Z,62.12
2019-04-16T06:12:10.477Z,62.27
2019-04-16T06:14:37.263Z,62.21
2019-04-16T06:17:03.991Z,62.22
2019-04-16T06:19:30.798Z,62.16
2019-04-16T06:21:57.537Z,62.06
2019-04-16T06:24:24.358Z,62.06
2019-04-16T06:26:51.101Z,61.78
2019-04-16T06:29:17.882Z,61.50
2019-04-16T06:31:44.620Z,61.23
2019-04-16T06:34:11.478Z,61.00
2019-04-16T06:36:38.234Z,61.10
2019-04-16T06:39:06.196Z,60.85
2019-04-16T06:41:41.375Z,60.92
2019-04-16T06:44:03.960Z,60.68
2019-04-16T06:46:30.049Z,60.60
2019-04-16T06:48:56.794Z,60.26
2019-04-16T06:51:23.545Z,60.28
2019-04-16T06:53:50.392Z,59.94
2019-04-16T06:56:20.022Z,59.75
2019-04-16T06:58:51.244Z,59.44
2019-04-16T07:01:14.351Z,58.99
2019-04-16T07:03:41.110Z,58.50
2019-04-16T07:06:07.862Z,58.13
2019-04-16T07:08:38.512Z,57.72
2019-04-16T07:11:03.257Z,56.34
2019-04-16T07:13:30.154Z,56.12
2019-04-16T07:15:57.761Z,56.67
2019-04-16T07:18:24.731Z,55.87
2019-04-16T07:20:51.602Z,55.79
2019-04-16T07:23:18.466Z,55.37
2019-04-16T07:25:45.946Z,55.33
2019-04-16T07:28:13.061Z,54.99
2019-04-16T07:30:40.618Z,54.53
2019-04-16T07:33:08.163Z,53.69
2019-04-16T07:35:34.939Z,53.88
2019-04-16T07:38:05.013Z,53.60
2019-04-16T07:40:30.705Z,52.80
2019-04-16T07:42:58.952Z,52.47
2019-04-16T07:45:26.092Z,52.03
2019-04-16T07:47:52.894Z,50.93
2019-04-16T07:50:19.653Z,50.00
2019-04-16T07:52:46.383Z,49.76
2019-04-16T07:55:13.155Z,49.50
2019-04-16T07:57:39.906Z,49.32
2019-04-16T08:00:10.216Z,49.21
2019-04-16T08:02:37.023Z,48.58
2019-04-16T08:05:08.649Z,47.76
2019-04-16T08:07:34.103Z,47.36
2019-04-16T08:10:02.835Z,47.29
2019-04-16T08:12:30.844Z,46.81
2019-04-16T08:15:11.895Z,46.35
2019-04-16T08:17:26.668Z,47.11
2019-04-16T08:19:55.355Z,45.43
2019-04-16T08:22:22.053Z,44.76
2019-04-16T08:24:48.744Z,43.15
2019-04-16T08:27:19.082Z,43.71
2019-04-16T08:29:44.078Z,43.51
2019-04-16T08:32:12.864Z,43.82
2019-04-16T08:34:39.404Z,42.67
2019-04-16T08:37:08.073Z,43.69
2019-04-16T08:39:36.875Z,44.19
2019-04-16T08:42:03.483Z,43.86
2019-04-16T08:44:35.349Z,43.55
2019-04-16T08:46:59.521Z,44.69
2019-04-16T08:49:26.415Z,43.21
2019-04-16T08:51:53.158Z,43.94
2019-04-16T08:54:19.898Z,42.50
2019-04-16T08:56:46.679Z,42.40
2019-04-16T08:59:13.415Z,42.72
2019-04-16T09:01:40.196Z,41.84
2019-04-16T09:04:06.946Z,42.33
2019-04-16T09:06:33.666Z,41.48
2019-04-16T09:09:11.528Z,42.16
2019-04-16T09:11:29.083Z,42.18
2019-04-16T09:13:55.817Z,42.35
2019-04-16T09:16:22.603Z,42.08
2019-04-16T09:18:49.336Z,41.71
2019-04-16T09:21:16.058Z,41.20
2019-04-16T09:23:43.076Z,41.09
2019-04-16T09:26:14.193Z,41.40
2019-04-16T09:28:38.344Z,40.61
2019-04-16T09:31:05.345Z,39.79
2019-04-16T09:33:33.509Z,40.87
2019-04-16T09:36:00.625Z,40.65
2019-04-16T09:38:27.480Z,41.27
2019-04-16T09:40:54.242Z,41.11
2019-04-16T09:43:20.978Z,39.92
2019-04-16T09:45:47.813Z,39.15
2019-04-16T09:48:14.515Z,39.33
2019-04-16T09:50:46.581Z,38.41
2019-04-16T09:53:09.856Z,37.55
2019-04-16T09:55:36.608Z,38.12
2019-04-16T09:58:06.229Z,39.24
2019-04-16T10:00:32.101Z,39.19
2019-04-16T10:02:58.847Z,40.06
2019-04-16T10:05:26.572Z,39.92
2019-04-16T10:07:56.915Z,38.91
2019-04-16T10:10:24.009Z,38.73
2019-04-16T10:12:51.379Z,39.12
2019-04-16T10:15:18.128Z,37.87
2019-04-16T10:17:44.893Z,37.81
2019-04-16T10:20:11.673Z,36.77
2019-04-16T10:22:38.406Z,36.21
2019-04-16T10:25:10.769Z,36.05
2019-04-16T10:27:37.448Z,35.88
2019-04-16T10:30:06.902Z,35.94
2019-04-16T10:32:33.709Z,36.28
2019-04-16T10:35:00.404Z,36.46
2019-04-16T10:37:27.148Z,36.24
2019-04-16T10:39:53.991Z,35.00
2019-04-16T10:42:20.762Z,36.05
2019-04-16T10:44:47.493Z,35.91
2019-04-16T10:47:16.618Z,36.83
2019-04-16T10:49:43.286Z,37.21
2019-04-16T10:52:10.154Z,36.30
2019-04-16T10:54:38.216Z,36.89
2019-04-16T10:57:05.061Z,36.49
2019-04-16T10:59:31.865Z,36.44
2019-04-16T11:01:58.661Z,37.15
2019-04-16T11:04:26.118Z,37.46
2019-04-16T11:06:52.853Z,36.86
2019-04-16T11:09:19.581Z,36.58
2019-04-16T11:11:46.471Z,36.27
2019-04-16T11:14:13.205Z,37.03
2019-04-16T11:16:40.094Z,36.93
2019-04-16T11:19:07.220Z,36.78
2019-04-16T11:21:34.052Z,35.85
2019-04-16T11:24:06.145Z,36.44
2019-04-16T11:26:38.111Z,36.29
2019-04-16T11:29:04.999Z,36.14
2019-04-16T11:31:35.340Z,35.28
2019-04-16T11:34:02.085Z,35.71
2019-04-16T11:36:30.901Z,33.82
2019-04-16T11:38:57.409Z,32.60
2019-04-16T11:41:24.155Z,31.20
2019-04-16T11:43:51.131Z,30.94
2019-04-16T11:46:17.870Z,30.81
2019-04-16T11:48:44.652Z,30.00
2019-04-16T11:51:11.483Z,28.46
2019-04-16T11:53:38.219Z,30.48
2019-04-16T11:56:04.983Z,28.93
2019-04-16T11:58:31.795Z,28.80
2019-04-16T12:00:58.517Z,29.59
2019-04-16T12:03:25.244Z,29.39
2019-04-16T12:05:52.064Z,28.89
2019-04-16T12:08:18.866Z,29.01
2019-04-16T12:10:45.728Z,28.78
2019-04-16T12:13:12.719Z,30.02
2019-04-16T12:15:39.541Z,30.56
2019-04-16T12:18:06.293Z,30.83
2019-04-16T12:20:33.126Z,31.31
2019-04-16T12:22:59.881Z,31.68
2019-04-16T12:25:29.287Z,31.76
2019-04-16T12:27:55.264Z,31.77
2019-04-16T12:30:22.205Z,31.26
2019-04-16T12:32:48.888Z,32.25
2019-04-16T12:35:15.641Z,33.29
2019-04-16T12:37:42.431Z,32.75
2019-04-16T12:40:09.694Z,32.47
2019-04-16T12:42:41.067Z,32.42
2019-04-16T12:45:08.625Z,33.01
2019-04-16T12:47:35.288Z,32.81
2019-04-16T12:50:05.096Z,36.58
2019-04-16T12:52:31.860Z,34.67
2019-04-16T12:54:59.577Z,33.65
2019-04-16T12:57:26.572Z,33.29
2019-04-16T12:59:54.982Z,33.26
2019-04-16T13:02:21.961Z,33.62
2019-04-16T13:04:49.471Z,34.62
2019-04-16T13:07:16.276Z,33.94
2019-04-16T13:09:44.230Z,34.21
2019-04-16T13:12:11.274Z,34.17
2019-04-16T13:14:38.024Z,34.46
2019-04-16T13:17:04.794Z,34.86
2019-04-16T13:19:31.646Z,35.00
2019-04-16T13:22:00.042Z,34.27
2019-04-16T13:24:26.982Z,34.12
2019-04-16T13:26:53.687Z,34.38
2019-04-16T13:29:20.423Z,34.27
2019-04-16T13:31:47.278Z,34.00
2019-04-16T13:34:18.305Z,34.28
2019-04-16T13:36:42.577Z,34.63
2019-04-16T13:39:09.960Z,33.63
2019-04-16T13:41:36.748Z,33.51
2019-04-16T13:44:08.113Z,33.96
2019-04-16T13:46:34.720Z,33.22
2019-04-16T13:49:01.118Z,32.71
2019-04-16T13:51:28.263Z,32.68
2019-04-16T13:53:55.009Z,33.37
2019-04-16T13:56:22.008Z,33.67
2019-04-16T13:58:48.875Z,34.32
2019-04-16T14:01:15.624Z,34.54
2019-04-16T14:03:42.402Z,34.29
2019-04-16T14:06:10.810Z,34.35
2019-04-16T14:08:37.775Z,33.81
2019-04-16T14:11:04.599Z,34.04
2019-04-16T14:13:31.345Z,34.43
2019-04-16T14:15:58.149Z,34.02
2019-04-16T14:18:25.282Z,34.22
2019-04-16T14:20:52.034Z,34.54
2019-04-16T14:23:18.830Z,34.46
2019-04-16T14:25:45.581Z,33.66
2019-04-16T14:28:12.473Z,33.80
2019-04-16T14:30:42.178Z,33.09
2019-04-16T14:33:07.943Z,33.28
2019-04-16T14:35:43.551Z,32.71
2019-04-16T14:38:10.238Z,31.89
2019-04-16T14:40:39.607Z,32.48
2019-04-16T14:43:05.714Z,32.66
2019-04-16T14:45:38.289Z,32.23
2019-04-16T14:48:01.075Z,32.36
2019-04-16T14:50:27.808Z,31.59
2019-04-16T14:52:54.698Z,31.57
2019-04-16T14:55:21.467Z,31.74
2019-04-16T14:57:48.182Z,31.81
2019-04-16T15:00:15.087Z,31.88
2019-04-16T15:02:41.819Z,32.04
2019-04-16T15:05:08.667Z,32.31
2019-04-16T15:07:35.472Z,32.23
2019-04-16T15:10:05.619Z,31.78
2019-04-16T15:12:35.119Z,32.40
2019-04-16T15:15:00.971Z,33.48
2019-04-16T15:17:29.354Z,34.67
2019-04-16T15:19:56.250Z,35.43
2019-04-16T15:22:23.022Z,36.32
2019-04-16T15:24:49.751Z,39.66
2019-04-16T15:27:16.578Z,39.91
2019-04-16T15:29:43.319Z,40.47
2019-04-16T15:32:10.309Z,41.16
2019-04-16T15:34:41.853Z,42.08
2019-04-16T15:37:05.796Z,42.75
2019-04-16T15:39:35.360Z,42.66
2019-04-16T15:42:02.496Z,42.61
2019-04-16T15:44:31.882Z,41.79
2019-04-16T15:46:57.882Z,41.39
2019-04-16T15:49:24.615Z,38.55
2019-04-16T15:51:51.605Z,37.41
2019-04-16T15:54:18.343Z,36.74
2019-04-16T15:56:45.203Z,35.37
2019-04-16T15:59:11.975Z,34.29
2019-04-16T16:01:38.676Z,34.50
2019-04-16T16:04:05.482Z,39.08
2019-04-16T16:06:32.190Z,39.53
2019-04-16T16:08:58.950Z,38.58
2019-04-16T16:11:25.733Z,41.21
2019-04-16T16:13:52.462Z,40.86
2019-04-16T16:16:19.351Z,41.53
2019-04-16T16:18:46.086Z,39.33
2019-04-16T16:21:13.006Z,40.20
2019-04-16T16:23:39.799Z,40.09
2019-04-16T16:26:06.535Z,42.26
2019-04-16T16:28:33.248Z,41.42
2019-04-16T16:31:00.414Z,40.89
2019-04-16T16:33:27.620Z,39.32
2019-04-16T16:35:58.941Z,38.00
2019-04-16T16:38:22.948Z,38.85
2019-04-16T16:40:50.575Z,38.93
2019-04-16T16:43:18.492Z,38.78
2019-04-16T16:45:52.376Z,39.29
2019-04-16T16:48:22.929Z,39.48
2019-04-16T16:50:51.631Z,39.71
2019-04-16T16:53:23.114Z,40.40
2019-04-16T16:55:49.791Z,40.36
2019-04-16T16:58:17.968Z,40.67
2019-04-16T17:00:49.449Z,40.86
2019-04-16T17:03:16.177Z,41.31
2019-04-16T17:05:42.909Z,42.09
2019-04-16T17:08:12.771Z,42.56
2019-04-16T17:10:42.458Z,42.84
2019-04-16T17:13:13.076Z,43.20
2019-04-16T17:15:39.837Z,43.58
2019-04-16T17:18:16.361Z,44.38
2019-04-16T17:20:43.224Z,45.78
2019-04-16T17:23:09.969Z,46.06
2019-04-16T17:25:45.606Z,46.10
2019-04-16T17:28:19.813Z,46.54
2019-04-16T17:30:49.909Z,47.84
2019-04-16T17:33:16.882Z,49.50
2019-04-16T17:35:46.609Z,50.79
2019-04-16T17:38:12.530Z,50.83
2019-04-16T17:40:40.693Z,51.46
2019-04-16T17:43:12.941Z,52.27
2019-04-16T17:45:35.952Z,52.02
2019-04-16T17:48:02.910Z,52.39
2019-04-16T17:50:29.740Z,52.78
2019-04-16T17:52:56.727Z,53.05
2019-04-16T17:55:23.420Z,53.34
2019-04-16T17:57:50.166Z,53.73
2019-04-16T18:00:17.033Z,54.00
2019-04-16T18:02:43.784Z,53.83
2019-04-16T18:05:10.495Z,53.74
2019-04-16T18:07:37.290Z,53.76
2019-04-16T18:10:05.943Z,53.65
2019-04-16T18:12:32.694Z,53.38
2019-04-16T18:14:59.514Z,53.22
2019-04-16T18:17:27.669Z,53.49
2019-04-16T18:19:54.787Z,53.71
2019-04-16T18:22:21.683Z,54.17
2019-04-16T18:24:48.400Z,54.03
2019-04-16T18:27:15.329Z,54.22
2019-04-16T18:29:42.075Z,54.53
2019-04-16T18:32:08.808Z,54.58
2019-04-16T18:34:35.690Z,54.30
2019-04-16T18:37:02.599Z,53.97
2019-04-16T18:39:29.346Z,52.96
2019-04-16T18:41:56.226Z,52.24
2019-04-16T18:44:22.957Z,51.87
2019-04-16T18:46:49.745Z,51.64
2019-04-16T18:49:17.496Z,51.35
2019-04-16T18:51:44.839Z,51.37
2019-04-16T18:54:15.012Z,51.42
2019-04-16T18:56:40.434Z,51.64
2019-04-16T18:59:07.187Z,51.63
2019-04-16T19:01:33.922Z,51.44
2019-04-16T19:04:01.062Z,51.33
2019-04-16T19:06:27.946Z,50.81
2019-04-16T19:08:56.900Z,50.65
2019-04-16T19:11:23.689Z,50.59
2019-04-16T19:13:50.428Z,50.74
2019-04-16T19:16:17.203Z,50.89
2019-04-16T19:18:43.992Z,51.23
2019-04-16T19:21:10.658Z,51.70
2019-04-16T19:23:37.455Z,51.45
2019-04-16T19:26:04.195Z,51.31
2019-04-16T19:28:30.934Z,51.58
2019-04-16T19:30:57.716Z,51.68
2019-04-16T19:33:24.467Z,51.77
2019-04-16T19:35:52.322Z,51.53
2019-04-16T19:38:19.070Z,51.41
2019-04-16T19:40:47.723Z,51.44
2019-04-16T19:43:14.379Z,51.52
2019-04-16T19:45:43.740Z,52.01
2019-04-16T19:48:09.771Z,52.16
2019-04-16T19:50:37.274Z,51.68
2019-04-16T19:53:04.140Z,51.59
2019-04-16T19:55:30.972Z,51.84
2019-04-16T19:57:58.121Z,51.95
2019-04-16T20:00:24.960Z,52.42
2019-04-16T20:02:51.712Z,52.49
2019-04-16T20:05:19.404Z,52.48
2019-04-16T20:07:46.352Z,52.79
2019-04-16T20:10:13.097Z,52.91
2019-04-16T20:12:39.817Z,53.16
2019-04-16T20:15:09.558Z,53.13
2019-04-16T20:17:36.309Z,52.91
2019-04-16T20:20:04.940Z,52.96
2019-04-16T20:22:32.704Z,53.24
2019-04-16T20:24:59.443Z,53.38
2019-04-16T20:27:26.181Z,53.70
2019-04-16T20:29:53.296Z,54.10
2019-04-16T20:32:19.987Z,54.96
2019-04-16T20:34:46.741Z,55.23
2019-04-16T20:37:13.494Z,55.37
2019-04-16T20:39:40.862Z,55.53
2019-04-16T20:42:07.959Z,55.65
2019-04-16T20:44:34.675Z,55.70
2019-04-16T20:47:03.360Z,55.71
2019-04-16T20:49:30.126Z,56.04
2019-04-16T20:52:00.676Z,56.27
2019-04-16T20:54:25.739Z,56.40
2019-04-16T20:56:53.253Z,56.41
2019-04-16T20:59:20.684Z,56.25
2019-04-16T21:01:47.430Z,56.03
2019-04-16T21:04:14.212Z,55.85
2019-04-16T21:06:42.056Z,56.16
2019-04-16T21:09:09.030Z,56.49
2019-04-16T21:11:40.445Z,56.08
2019-04-16T21:14:04.813Z,56.25
2019-04-16T21:16:33.804Z,56.58
2019-04-16T21:19:00.121Z,56.68
2019-04-16T21:21:27.033Z,56.71
2019-04-16T21:23:53.756Z,56.87
2019-04-16T21:26:20.465Z,57.02
2019-04-16T21:28:47.243Z,56.58
2019-04-16T21:31:14.005Z,57.18
2019-04-16T21:33:40.726Z,57.27
2019-04-16T21:36:07.499Z,57.40
2019-04-16T21:38:34.256Z,57.28
2019-04-16T21:41:00.971Z,57.31
2019-04-16T21:43:27.772Z,57.45
2019-04-16T21:45:54.513Z,57.47
2019-04-16T21:48:23.819Z,57.42
2019-04-16T21:50:49.878Z,57.11
2019-04-16T21:53:16.614Z,57.14
2019-04-16T21:55:43.403Z,57.04
2019-04-16T21:58:10.147Z,57.05
2019-04-16T22:00:36.935Z,57.26
2019-04-16T22:03:09.436Z,57.67
2019-04-16T22:05:32.328Z,57.86
2019-04-16T22:07:59.196Z,57.96
2019-04-16T22:10:25.919Z,57.83
2019-04-16T22:12:52.647Z,57.70
2019-04-16T22:15:19.541Z,57.55
2019-04-16T22:17:46.294Z,57.60
2019-04-16T22:20:13.011Z,57.67
2019-04-16T22:22:39.906Z,57.76
2019-04-16T22:25:06.733Z,57.78
2019-04-16T22:27:33.487Z,58.10
2019-04-16T22:30:00.263Z,58.17
2019-04-16T22:32:30.315Z,57.85
2019-04-16T22:34:55.535Z,57.85
2019-04-16T22:37:22.338Z,57.99
2019-04-16T22:39:51.249Z,57.95
2019-04-16T22:42:17.588Z,57.81
2019-04-16T22:44:44.399Z,57.74
2019-04-16T22:47:11.161Z,57.73
2019-04-16T22:49:37.886Z,57.73
2019-04-16T22:52:04.668Z,58.00
2019-04-16T22:54:31.434Z,58.08
2019-04-16T22:57:02.009Z,58.14
2019-04-16T22:59:26.746Z,58.20
2019-04-16T23:01:53.626Z,58.01
2019-04-16T23:04:22.790Z,58.06
2019-04-16T23:06:48.904Z,58.18
2019-04-16T23:09:17.011Z,58.11
2019-04-16T23:11:44.207Z,58.12
2019-04-16T23:14:10.997Z,58.20
2019-04-16T23:16:41.891Z,58.14
2019-04-16T23:19:06.270Z,58.27
2019-04-16T23:21:33.122Z,58.14
2019-04-16T23:23:59.843Z,58.04
2019-04-16T23:26:26.732Z,58.15
2019-04-16T23:28:55.218Z,58.11
2019-04-16T23:31:22.789Z,58.24
2019-04-16T23:33:50.614Z,58.17
2019-04-16T23:36:17.330Z,58.17
2019-04-16T23:38:44.102Z,58.39
2019-04-16T23:41:15.309Z,58.55
2019-04-16T23:43:39.364Z,58.34
2019-04-16T23:46:06.574Z,58.36
2019-04-16T23:48:33.721Z,58.58
2019-04-16T23:51:00.500Z,58.52
2019-04-16T23:53:27.239Z,58.41
2019-04-16T23:55:53.970Z,58.47
2019-04-16T23:58:20.765Z,58.30
